Bandaranaike International Airport

Airport
ICAO code: 
VCBI
IATA Code: 
CMB
Summary
ICAO Region: 
APAC
Territory: 
Location: 
Negombo, Western Province
Serving: 
Colombo
Elevation: 
26 ft
Coordinates: 
Aerial View: 
7° 10' 52.284" N, 79° 53' 1.716" E
Metar
Observation
VCBI 290710Z 23008KT 190V270 9999 SCT017 28/23 Q1010 NOSIG
Station
Katunayake
Date/Time
2021-11-29 07:10:00
Wind direction
230°
Wind speed
08 kts
Lowest cloud amount
scattered clouds
Temperature
28°C
Dew point
23°C
Humidity
74%
QNH
1010 hPa
Weather condition
n/a

Colombo International Airport (commonly known as Bandaranaike International Airport, Colombo-Bandaranaike and locally as Katunayake Airport) is the main international airport serving Sri Lanka.

Climatology

Tropical monsoon climate (Köppen climate classification Am)

Runways

Designator Length Width Surface Rops
4/22 3350 45 ASP Yes/Yes
Airport map: 
Aerial View: 

SKYbrary Partners:

Safety knowledge contributed by: